Time;durP1;ratioP1;P1;durP2;ratioP2;P2;SDS_P1;SDS_P2;PMS_P1;PMS_P2;Temp;Humidity;BMP_temperature;BMP_pressure;BME280_temperature;BME280_humidity;BME280_pressure;Samples;Min_cycle;Max_cycle;Signal;HPM_P1;HPM_P2
2021/12/09 02:04:49;;;;;;;51.87;47.37;;;;;;;22.82;28.50;94576.91;4959618;28;104347;-54
2021/12/09 02:07:15;;;;;;;51.77;46.87;;;;;;;22.81;28.73;94586.75;4962483;28;104731;-54
2021/12/09 02:13:03;;;;;;;49.87;45.47;;;;;;;22.84;28.94;94593.38;4977974;28;102746;-54
2021/12/09 02:15:28;;;;;;;51.37;46.87;;;;;;;22.83;28.98;94585.69;4975595;28;103068;-54
2021/12/09 02:17:55;;;;;;;51.23;46.67;;;;;;;22.81;28.78;94591.31;4981484;28;102714;-54
2021/12/09 02:20:25;;;;;;;52.57;47.80;;;;;;;22.81;28.60;94581.44;4980894;28;102810;-54
2021/12/09 02:22:51;;;;;;;51.03;46.53;;;;;;;22.80;28.39;94574.53;4980836;28;103308;-54
2021/12/09 02:25:18;;;;;;;49.50;45.23;;;;;;;22.80;28.65;94581.75;4975248;28;103614;-54
2021/12/09 02:27:44;;;;;;;47.03;42.83;;;;;;;22.81;28.55;94585.97;4967824;28;103074;-54
2021/12/09 02:30:11;;;;;;;48.93;44.63;;;;;;;22.80;28.65;94581.75;4966932;28;102781;-54
2021/12/09 02:32:37;;;;;;;45.43;41.60;;;;;;;22.71;28.93;94568.47;4969216;28;102760;-54
2021/12/09 02:35:03;;;;;;;48.17;43.97;;;;;;;22.79;28.50;94610.25;4980446;28;103268;-54
2021/12/09 02:37:29;;;;;;;48.60;44.37;;;;;;;22.80;28.56;94597.72;4960913;28;102788;-54
2021/12/09 02:39:56;;;;;;;50.90;46.40;;;;;;;22.79;28.72;94599.63;4981263;28;103345;-54
2021/12/09 02:42:24;;;;;;;47.90;43.70;;;;;;;22.79;28.61;94594.28;4980310;28;102762;-54
2021/12/09 02:44:50;;;;;;;48.13;44.03;;;;;;;22.79;28.67;94594.28;4979480;28;102848;-54
2021/12/09 02:47:15;;;;;;;45.57;41.47;;;;;;;22.73;28.40;94576.13;4973311;28;102792;-54
2021/12/09 02:49:41;;;;;;;50.17;45.77;;;;;;;22.77;28.68;94585.84;4980769;28;102805;-54
2021/12/09 02:52:07;;;;;;;44.67;40.77;;;;;;;22.79;28.38;94582.84;4979888;28;103495;-54
2021/12/09 02:54:32;;;;;;;47.17;43.03;;;;;;;22.79;28.60;94596.16;4962329;28;103356;-55
2021/12/09 02:57:02;;;;;;;46.40;42.20;;;;;;;22.76;28.71;94576.28;4979145;28;102725;-55
2021/12/09 02:59:28;;;;;;;42.37;38.67;;;;;;;22.83;28.42;94578.47;4974972;28;104537;-55
2021/12/09 03:04:21;;;;;;;40.77;37.10;;;;;;;22.85;28.40;94586.19;4979461;28;103155;-54
2021/12/09 03:06:48;;;;;;;41.30;37.80;;;;;;;22.86;28.49;94595.75;4979654;28;102789;-54
2021/12/09 03:09:16;;;;;;;42.20;38.60;;;;;;;22.87;28.40;94594.66;4975115;28;103368;-54
2021/12/09 03:11:44;;;;;;;41.77;38.10;;;;;;;22.86;28.41;94599.19;4982656;28;103265;-54
2021/12/09 03:14:10;;;;;;;40.33;36.80;;;;;;;22.86;28.36;94593.84;4976588;28;103434;-54
2021/12/09 03:16:38;;;;;;;39.20;36.00;;;;;;;22.86;28.44;94585.88;4979690;28;103548;-54
2021/12/09 03:19:26;;;;;;;39.10;35.70;;;;;;;22.86;28.32;94579.75;4974875;28;102893;-54
2021/12/09 03:21:51;;;;;;;37.47;34.03;;;;;;;22.87;28.15;94578.66;4968122;28;102884;-54
2021/12/09 03:24:19;;;;;;;36.60;33.40;;;;;;;22.87;28.24;94562.69;4979385;28;102711;-55
2021/12/09 03:26:56;;;;;;;37.63;34.33;;;;;;;22.85;28.02;94575.53;4979161;28;102838;-55
2021/12/09 03:29:24;;;;;;;35.60;32.47;;;;;;;22.86;28.39;94582.41;4979712;28;102882;-55
2021/12/09 03:31:53;;;;;;;35.73;32.63;;;;;;;22.87;28.46;94602.63;4973223;28;103296;-55
2021/12/09 03:34:24;;;;;;;39.80;36.40;;;;;;;22.86;28.45;94603.72;4978230;28;103399;-55
2021/12/09 03:36:51;;;;;;;37.53;34.33;;;;;;;22.85;28.69;94597.63;4989984;28;102745;-54
2021/12/09 03:39:19;;;;;;;35.97;32.87;;;;;;;22.88;28.60;94606.84;4980255;28;102774;-55
2021/12/09 03:41:48;;;;;;;36.30;33.10;;;;;;;22.83;28.77;94597.13;4980408;28;103084;-55
2021/12/09 03:44:14;;;;;;;35.73;32.60;;;;;;;22.88;28.26;94601.53;4973962;28;102670;-55
2021/12/09 03:46:40;;;;;;;36.90;33.70;;;;;;;22.89;28.04;94603.88;4970793;28;103142;-55
2021/12/09 03:49:06;;;;;;;37.20;33.77;;;;;;;22.82;28.29;94582.25;4975673;28;102833;-55
2021/12/09 03:51:32;;;;;;;33.80;30.80;;;;;;;22.89;27.95;94603.88;4974500;28;103871;-55
2021/12/09 03:53:57;;;;;;;35.30;32.10;;;;;;;22.85;28.28;94580.84;4982582;28;103122;-54
2021/12/09 03:56:23;;;;;;;34.23;31.30;;;;;;;22.80;28.19;94565.78;4961521;28;102853;-55
2021/12/09 03:58:48;;;;;;;35.57;32.50;;;;;;;22.83;28.54;94575.81;4978142;28;103221;-55
2021/12/09 04:01:14;;;;;;;34.43;31.33;;;;;;;22.89;28.60;94587.91;4978378;28;103167;-55
2021/12/09 04:03:39;;;;;;;35.60;32.50;;;;;;;22.91;28.03;94588.38;4977514;28;102762;-55
2021/12/09 04:06:05;;;;;;;33.90;30.97;;;;;;;22.94;27.60;94610.91;4971187;28;103558;-54
2021/12/09 04:08:31;;;;;;;32.37;29.47;;;;;;;22.95;27.49;94610.59;4975953;28;102768;-54
2021/12/09 04:10:56;;;;;;;31.17;28.50;;;;;;;22.96;27.61;94617.50;4977762;28;103011;-55
2021/12/09 04:13:22;;;;;;;30.57;27.93;;;;;;;22.98;27.50;94607.31;4977977;28;103370;-55
2021/12/09 04:15:47;;;;;;;32.90;30.10;;;;;;;23.00;27.08;94617.63;4969655;28;102780;-55
2021/12/09 04:18:13;;;;;;;30.40;27.80;;;;;;;23.00;27.41;94604.31;4976355;28;102655;-55
2021/12/09 04:20:39;;;;;;;30.37;27.77;;;;;;;22.98;27.09;94601.97;4978732;28;103036;-55
2021/12/09 04:23:06;;;;;;;30.57;27.93;;;;;;;23.01;27.33;94620.03;4978501;28;104583;-55
2021/12/09 04:25:34;;;;;;;29.90;27.20;;;;;;;23.01;27.32;94622.69;4979039;28;102792;-55
2021/12/09 04:28:00;;;;;;;30.70;28.10;;;;;;;22.97;26.96;94595.09;4973006;28;103218;-55
2021/12/09 04:30:25;;;;;;;29.43;26.80;;;;;;;22.98;27.01;94601.97;4978027;28;103344;-55
2021/12/09 04:32:52;;;;;;;29.43;26.93;;;;;;;23.02;27.39;94612.81;4978241;28;102913;-55
2021/12/09 04:35:18;;;;;;;29.90;27.20;;;;;;;23.05;27.29;94628.94;4977094;28;102619;-55
2021/12/09 04:37:44;;;;;;;29.20;26.70;;;;;;;23.06;27.46;94627.84;4978646;28;103003;-55
2021/12/09 04:40:12;;;;;;;27.57;25.27;;;;;;;23.07;27.11;94613.41;4978144;28;104330;-55
2021/12/09 04:42:38;;;;;;;27.43;25.13;;;;;;;23.07;27.22;94624.06;4960390;28;102829;-53
2021/12/09 04:45:06;;;;;;;26.83;24.67;;;;;;;23.13;27.28;94630.03;4978248;28;102888;-53
2021/12/09 04:47:32;;;;;;;28.13;25.67;;;;;;;23.18;27.20;94610.41;4977834;28;102814;-53
2021/12/09 04:49:57;;;;;;;26.57;24.37;;;;;;;23.24;27.00;94625.16;4972037;28;103509;-53
2021/12/09 04:52:23;;;;;;;27.03;24.43;;;;;;;23.16;27.12;94625.94;4978360;28;103582;-54
2021/12/09 04:54:48;;;;;;;27.93;25.53;;;;;;;23.09;27.44;94635.19;4978336;28;102687;-54
2021/12/09 04:57:14;;;;;;;28.43;26.13;;;;;;;23.06;27.57;94640.38;4967313;28;102795;-54
2021/12/09 04:59:40;;;;;;;28.23;25.70;;;;;;;23.01;27.97;94649.31;4981170;28;103525;-54
2021/12/09 05:02:15;;;;;;;30.40;27.90;;;;;;;22.96;27.48;94651.34;4978477;28;103557;-54
2021/12/09 05:04:41;;;;;;;28.13;25.63;;;;;;;22.95;27.61;94641.78;4977496;28;103089;-54
2021/12/09 05:07:06;;;;;;;28.93;26.37;;;;;;;23.00;26.90;94650.41;4979231;28;102804;-54
2021/12/09 05:09:37;;;;;;;27.47;25.00;;;;;;;23.03;26.82;94633.03;4977776;28;103149;-54
2021/12/09 05:12:05;;;;;;;25.83;23.53;;;;;;;23.09;26.82;94648.53;4978046;28;103578;-54
2021/12/09 05:14:31;;;;;;;26.50;24.30;;;;;;;23.17;26.36;94635.50;4994012;28;104010;-54
2021/12/09 05:16:57;;;;;;;25.43;22.93;;;;;;;23.21;26.55;94636.44;4976337;28;102798;-54
2021/12/09 05:19:24;;;;;;;25.40;23.10;;;;;;;23.24;26.72;94625.16;4976883;28;102648;-54
2021/12/09 05:21:53;;;;;;;25.80;23.60;;;;;;;23.23;27.48;94623.59;4964600;28;102874;-54
2021/12/09 05:24:18;;;;;;;25.97;23.77;;;;;;;23.35;26.87;94629.06;4974470;28;103109;-54
2021/12/09 05:26:50;;;;;;;24.80;22.67;;;;;;;23.43;26.75;94644.25;4979997;28;102687;-55
2021/12/09 05:29:17;;;;;;;25.33;22.93;;;;;;;23.51;27.02;94637.31;4981805;28;102738;-53
2021/12/09 05:34:28;;;;;;;22.73;20.83;;;;;;;23.67;27.88;94644.50;4972479;28;103510;-54
2021/12/09 05:36:53;;;;;;;23.67;21.57;;;;;;;23.69;27.18;94642.31;4981570;28;103227;-54
2021/12/09 05:39:19;;;;;;;23.77;21.70;;;;;;;23.64;27.41;94650.47;4980159;28;102629;-54
2021/12/09 05:41:46;;;;;;;23.20;21.10;;;;;;;23.53;27.59;94643.91;4978459;28;103420;-54
2021/12/09 05:44:14;;;;;;;23.17;21.07;;;;;;;23.46;28.37;94659.59;4973686;28;103407;-54
2021/12/09 05:46:43;;;;;;;24.07;22.07;;;;;;;23.42;28.54;94664.00;4980146;28;103033;-53
2021/12/09 05:49:10;;;;;;;23.20;21.10;;;;;;;23.37;28.13;94640.19;4977008;28;103590;-53
2021/12/09 05:51:36;;;;;;;24.97;22.70;;;;;;;23.36;28.66;94635.97;4988450;28;103258;-54
2021/12/09 05:54:02;;;;;;;22.80;20.80;;;;;;;23.41;28.33;94646.44;5001137;28;103364;-54
2021/12/09 05:56:28;;;;;;;22.77;20.67;;;;;;;23.54;28.91;94658.81;4996783;28;104389;-54
2021/12/09 05:58:54;;;;;;;22.17;20.10;;;;;;;23.64;29.20;94663.03;5000583;28;103321;-53
2021/12/09 06:01:20;;;;;;;22.00;19.97;;;;;;;23.67;28.70;94663.19;5000915;28;102710;-53
2021/12/09 06:03:46;;;;;;;22.37;20.37;;;;;;;23.68;29.21;94648.75;5000470;28;103651;-53
2021/12/09 06:06:12;;;;;;;21.30;19.40;;;;;;;23.76;29.15;94657.03;4996406;28;102839;-53
2021/12/09 06:08:39;;;;;;;21.33;19.43;;;;;;;23.78;29.07;94655.63;5001143;28;102648;-54
2021/12/09 06:11:06;;;;;;;22.17;20.17;;;;;;;23.77;28.83;94653.28;4981812;28;103604;-54
2021/12/09 06:13:33;;;;;;;22.10;20.00;;;;;;;23.61;28.94;94666.34;5000665;28;102714;-54
2021/12/09 06:15:59;;;;;;;22.87;20.50;;;;;;;23.29;29.58;94628.44;5000712;28;102835;-53
2021/12/09 06:18:25;;;;;;;21.37;19.27;;;;;;;23.45;29.21;94652.69;4994388;28;103350;-53
2021/12/09 06:20:51;;;;;;;19.73;18.13;;;;;;;23.39;29.12;94644.09;5000976;28;103964;-54
2021/12/09 06:23:16;;;;;;;20.00;18.20;;;;;;;23.31;29.30;94646.75;5000757;28;102691;-54
2021/12/09 06:25:42;;;;;;;20.70;18.70;;;;;;;23.29;29.43;94659.63;4982418;28;103127;-54
2021/12/09 06:28:08;;;;;;;21.57;19.53;;;;;;;23.22;28.81;94675.31;4974582;28;103372;-54
2021/12/09 06:30:34;;;;;;;21.20;19.40;;;;;;;23.13;28.04;94671.88;4979981;28;103442;-54
2021/12/09 06:32:59;;;;;;;21.50;19.40;;;;;;;23.09;27.96;94666.41;4980878;28;102839;-54
2021/12/09 06:35:27;;;;;;;20.80;18.60;;;;;;;23.08;27.96;94675.50;4981984;28;102968;-54
2021/12/09 06:37:53;;;;;;;21.50;19.23;;;;;;;23.07;28.17;94652.59;4980393;28;102590;-54
2021/12/09 06:40:21;;;;;;;20.90;19.00;;;;;;;23.02;27.62;94653.56;4974870;28;105565;-54
2021/12/09 06:42:48;;;;;;;20.13;18.23;;;;;;;23.08;27.87;94654.16;4980614;28;102821;-53
2021/12/09 06:45:15;;;;;;;20.27;18.43;;;;;;;23.08;28.03;94654.94;4981121;28;102680;-54
2021/12/09 06:47:41;;;;;;;24.17;19.00;;;;;;;23.06;27.85;94662.47;4979363;28;102805;-54
2021/12/09 06:50:10;;;;;;;20.50;18.50;;;;;;;23.04;27.76;94661.22;4969200;28;102895;-54
2021/12/09 06:52:36;;;;;;;21.67;19.77;;;;;;;22.98;27.51;94657.13;4978000;28;102712;-54
2021/12/09 06:55:02;;;;;;;24.63;22.27;;;;;;;22.93;26.40;94658.09;4979666;28;103278;-54
2021/12/09 06:57:28;;;;;;;21.00;19.07;;;;;;;22.85;26.64;94653.56;4979378;28;102624;-54
2021/12/09 06:59:54;;;;;;;23.40;21.33;;;;;;;22.90;26.31;94658.72;4980590;28;102732;-54
2021/12/09 07:02:19;;;;;;;23.23;21.10;;;;;;;22.86;26.75;94671.09;4974310;28;102752;-53
2021/12/09 07:04:45;;;;;;;25.80;23.40;;;;;;;22.82;26.67;94651.50;4979430;28;102809;-53
2021/12/09 07:07:10;;;;;;;27.40;24.77;;;;;;;22.77;25.98;94664.94;4980557;28;103061;-53
2021/12/09 07:09:37;;;;;;;28.50;25.60;;;;;;;22.73;25.86;94650.69;4980337;28;103179;-54
2021/12/09 07:12:04;;;;;;;28.53;25.63;;;;;;;22.70;26.04;94641.47;4973758;28;103524;-53
2021/12/09 07:14:29;;;;;;;29.87;25.00;;;;;;;22.87;24.61;94656.69;4980915;28;102851;-54
2021/12/09 07:16:55;;;;;;;29.23;26.30;;;;;;;22.94;25.22;94670.31;4980917;28;103396;-53
2021/12/09 07:19:20;;;;;;;29.53;26.33;;;;;;;22.89;24.81;94661.69;4980196;28;103427;-53
2021/12/09 07:21:46;;;;;;;28.40;25.70;;;;;;;22.98;24.69;94663.25;4980031;28;102812;-53
2021/12/09 07:24:12;;;;;;;28.47;25.57;;;;;;;22.98;25.80;94665.13;4974514;28;102794;-53
2021/12/09 07:26:37;;;;;;;28.13;25.20;;;;;;;22.83;25.59;94630.97;4979340;28;102755;-54
2021/12/09 07:29:03;;;;;;;29.10;26.20;;;;;;;22.90;25.24;94650.72;4972669;28;104022;-54
2021/12/09 07:31:30;;;;;;;28.77;25.73;;;;;;;22.98;24.54;94649.94;4974492;28;103329;-53
2021/12/09 07:33:56;;;;;;;26.53;23.97;;;;;;;23.02;25.34;94650.09;4974675;28;102804;-53
2021/12/09 07:36:23;;;;;;;26.37;23.67;;;;;;;23.07;24.96;94640.06;4979900;28;103193;-54
2021/12/09 07:38:48;;;;;;;26.23;23.63;;;;;;;23.08;25.10;94632.84;4979790;28;103439;-53
2021/12/09 07:41:15;;;;;;;26.43;23.73;;;;;;;23.13;25.68;94650.56;4979320;28;102894;-54
2021/12/09 07:43:42;;;;;;;25.27;22.63;;;;;;;23.12;24.79;94628.44;4965552;28;103150;-54
2021/12/09 07:46:08;;;;;;;24.13;21.63;;;;;;;23.10;25.48;94636.75;4954859;28;103874;-54
2021/12/09 07:48:33;;;;;;;24.43;21.93;;;;;;;23.12;25.26;94639.13;4958835;28;102729;-54
2021/12/09 07:50:59;;;;;;;24.87;22.37;;;;;;;23.10;25.67;94646.63;4941261;28;102757;-53
2021/12/09 07:53:25;;;;;;;24.13;21.87;;;;;;;23.05;25.45;94620.94;4959623;28;102852;-54
2021/12/09 07:55:52;;;;;;;22.73;20.53;;;;;;;23.17;25.77;94630.94;4935677;28;103127;-54
2021/12/09 07:58:18;;;;;;;22.77;20.60;;;;;;;23.16;25.72;94626.72;4959191;28;102621;-54
2021/12/09 08:00:44;;;;;;;22.60;20.40;;;;;;;23.17;25.75;94608.84;4959124;28;102750;-54
2021/12/09 08:03:10;;;;;;;23.13;20.83;;;;;;;23.13;25.80;94618.56;4958675;28;102761;-54
2021/12/09 08:05:39;;;;;;;22.77;20.37;;;;;;;23.18;26.13;94635.19;4959304;28;102796;-54
2021/12/09 08:08:05;;;;;;;22.20;20.00;;;;;;;23.16;26.39;94613.38;4954124;28;102770;-54
2021/12/09 08:10:31;;;;;;;22.67;20.63;;;;;;;23.16;26.47;94628.59;4958754;28;102768;-54
2021/12/09 08:12:58;;;;;;;20.67;18.67;;;;;;;23.12;26.06;94617.78;4959126;28;102807;-54
2021/12/09 08:15:25;;;;;;;20.87;18.77;;;;;;;23.16;26.23;94633.94;4958294;28;103262;-54
2021/12/09 08:20:22;;;;;;;19.83;17.93;;;;;;;23.11;26.83;94643.66;4956648;28;103252;-54
2021/12/09 08:22:48;;;;;;;21.00;19.00;;;;;;;23.14;26.53;94638.78;4941463;28;103267;-54
2021/12/09 08:25:14;;;;;;;20.37;18.40;;;;;;;23.15;26.71;94633.16;4957778;28;103164;-54
2021/12/09 08:27:45;;;;;;;20.37;18.37;;;;;;;23.19;26.70;94636.75;4959016;28;103402;-54
2021/12/09 08:30:14;;;;;;;18.70;17.00;;;;;;;23.20;26.56;94640.22;4966702;28;102848;-54
2021/12/09 08:32:40;;;;;;;18.73;17.03;;;;;;;23.20;26.93;94646.31;4978841;28;103285;-54
2021/12/09 08:35:07;;;;;;;19.00;17.30;;;;;;;23.23;27.11;94634.25;4979091;28;103241;-54
2021/12/09 08:37:32;;;;;;;19.10;17.30;;;;;;;23.25;26.88;94640.03;4978246;28;103638;-53
2021/12/09 08:39:58;;;;;;;20.07;18.27;;;;;;;23.24;27.02;94633.16;4972185;28;103312;-53
2021/12/09 08:42:24;;;;;;;20.37;18.47;;;;;;;23.26;26.88;94617.63;4978294;28;102665;-54
2021/12/09 08:44:51;;;;;;;19.80;17.90;;;;;;;23.27;26.96;94619.19;4977458;28;102676;-54
2021/12/09 08:47:16;;;;;;;18.43;16.73;;;;;;;23.32;27.74;94630.44;4977740;28;102790;-54
2021/12/09 08:49:42;;;;;;;19.93;18.03;;;;;;;23.38;27.23;94620.41;4978132;28;102795;-56
2021/12/09 08:52:08;;;;;;;18.60;16.90;;;;;;;23.40;27.38;94613.66;4973282;28;102832;-53
2021/12/09 08:54:33;;;;;;;19.30;17.60;;;;;;;23.42;27.03;94611.47;4976865;28;102743;-55
2021/12/09 08:56:59;;;;;;;18.90;17.30;;;;;;;23.45;27.21;94596.72;4968170;28;102798;-54
2021/12/09 08:59:25;;;;;;;19.33;17.53;;;;;;;23.46;27.28;94619.59;4957996;28;104057;-53
2021/12/09 09:01:51;;;;;;;19.70;18.00;;;;;;;23.47;27.73;94612.38;4956443;28;103136;-54
2021/12/09 09:04:18;;;;;;;20.80;18.90;;;;;;;23.47;27.54;94604.38;4959699;28;103488;-53
2021/12/09 09:06:56;;;;;;;20.33;18.43;;;;;;;23.45;27.65;94598.59;4962166;28;103714;-54
2021/12/09 09:09:24;;;;;;;19.50;17.80;;;;;;;23.39;27.56;94592.66;4961285;28;102651;-54
2021/12/09 09:11:51;;;;;;;19.30;17.60;;;;;;;23.32;27.45;94587.81;4961199;28;102855;-54
2021/12/09 09:14:16;;;;;;;19.40;17.60;;;;;;;23.35;27.17;94594.41;4955664;28;103549;-54
2021/12/09 09:16:43;;;;;;;18.20;16.60;;;;;;;23.31;27.51;94574.78;4961320;28;102747;-54
2021/12/09 09:19:09;;;;;;;20.27;18.27;;;;;;;23.32;27.35;94563.03;4960838;28;103345;-55
2021/12/09 09:21:34;;;;;;;19.67;17.93;;;;;;;23.27;27.41;94555.22;4961971;28;102806;-55
2021/12/09 09:24:01;;;;;;;19.27;17.67;;;;;;;23.31;27.54;94577.47;4954885;28;103580;-54
2021/12/09 09:26:27;;;;;;;22.60;20.50;;;;;;;23.16;27.23;94543.31;4960731;28;102734;-55
2021/12/09 09:28:53;;;;;;;21.73;19.73;;;;;;;23.33;27.23;94551.25;4962927;28;103611;-54
2021/12/09 09:31:20;;;;;;;21.87;19.80;;;;;;;23.33;27.23;94533.38;4980917;28;102924;-54
2021/12/09 09:33:46;;;;;;;22.13;19.90;;;;;;;23.31;27.85;94535.59;4981334;28;103413;-54
2021/12/09 09:36:12;;;;;;;24.77;22.57;;;;;;;23.29;27.76;94553.00;4976918;28;103460;-54
2021/12/09 09:38:38;;;;;;;23.47;21.37;;;;;;;23.28;27.63;94549.56;4980772;28;102994;-54
2021/12/09 09:41:12;;;;;;;22.73;20.63;;;;;;;23.31;27.85;94567.56;4981519;28;103234;-54
2021/12/09 09:46:19;;;;;;;23.13;21.13;;;;;;;23.26;27.93;94549.09;4974447;28;103429;-55
2021/12/09 09:48:47;;;;;;;21.97;19.97;;;;;;;23.26;28.12;94541.09;4981729;28;102775;-54
2021/12/09 09:51:12;;;;;;;23.03;20.93;;;;;;;23.16;27.94;94532.66;4980884;28;103008;-54
2021/12/09 09:53:41;;;;;;;22.47;20.47;;;;;;;23.26;27.81;94545.66;4979193;28;103183;-54
2021/12/09 09:56:13;;;;;;;22.63;20.63;;;;;;;23.25;27.63;94546.75;4979875;28;103034;-54
2021/12/09 09:58:43;;;;;;;22.03;19.93;;;;;;;23.26;27.81;94497.69;4976573;28;103140;-54
2021/12/09 10:01:10;;;;;;;22.40;20.20;;;;;;;23.21;27.66;94519.97;4980970;28;103152;-54
2021/12/09 10:03:45;;;;;;;22.23;20.13;;;;;;;23.31;27.77;94516.94;4980626;28;102895;-54
2021/12/09 10:06:11;;;;;;;20.77;18.93;;;;;;;23.22;27.80;94480.75;4979724;28;102890;-55
2021/12/09 10:08:37;;;;;;;22.10;19.87;;;;;;;23.24;28.46;94475.91;4974538;28;102736;-54
2021/12/09 10:11:04;;;;;;;22.60;20.43;;;;;;;23.34;28.42;94502.19;4977932;28;103391;-54
2021/12/09 10:13:33;;;;;;;23.33;21.23;;;;;;;23.37;28.28;94494.34;4977848;28;103499;-53
2021/12/09 10:16:01;;;;;;;22.93;21.03;;;;;;;23.42;28.09;94506.72;4977561;28;102673;-53
2021/12/09 10:18:42;;;;;;;22.43;20.23;;;;;;;23.46;28.42;94478.28;4978109;28;102678;-53
2021/12/09 10:21:09;;;;;;;23.33;21.13;;;;;;;23.43;28.51;94473.59;4979121;28;102882;-53
2021/12/09 10:23:35;;;;;;;22.10;20.10;;;;;;;23.46;28.64;94501.50;4980333;28;103968;-53
2021/12/09 10:26:23;;;;;;;23.90;21.80;;;;;;;23.50;28.68;94471.22;4979401;28;102727;-53
2021/12/09 10:29:03;;;;;;;22.17;20.17;;;;;;;23.49;28.48;94490.97;4979983;28;103399;-53
2021/12/09 10:31:34;;;;;;;22.00;20.10;;;;;;;23.46;28.67;94483.63;4969930;28;102767;-53
2021/12/09 10:34:07;;;;;;;23.30;21.20;;;;;;;23.50;29.66;94500.53;4965606;28;103742;-53
2021/12/09 10:36:48;;;;;;;21.20;19.20;;;;;;;23.49;28.65;94488.31;4978710;28;102890;-53
2021/12/09 10:39:17;;;;;;;23.97;21.67;;;;;;;23.51;28.98;94483.44;4978924;28;102713;-53
2021/12/09 10:41:42;;;;;;;23.63;21.43;;;;;;;23.49;28.96;94461.66;4975699;28;102822;-53
2021/12/09 10:44:08;;;;;;;23.30;21.30;;;;;;;23.51;28.78;94480.75;4979510;28;102854;-53
2021/12/09 10:46:52;;;;;;;23.60;21.60;;;;;;;23.53;28.68;94486.59;4960700;28;104076;-54
2021/12/09 10:49:18;;;;;;;24.00;21.70;;;;;;;23.49;28.83;94466.97;4980068;28;102699;-61
2021/12/09 10:51:56;;;;;;;24.93;22.77;;;;;;;23.64;28.40;94463.00;4975226;28;102812;-53
2021/12/09 10:54:36;;;;;;;23.70;21.50;;;;;;;23.76;28.24;94459.66;4978515;28;102986;-53
2021/12/09 10:57:24;;;;;;;23.23;21.23;;;;;;;23.85;28.42;94469.16;4979048;28;102964;-52
2021/12/09 10:59:51;;;;;;;24.03;21.80;;;;;;;23.89;28.43;94432.72;4979484;28;103216;-52
2021/12/09 11:02:17;;;;;;;23.27;21.20;;;;;;;23.93;28.06;94462.19;4979230;28;102803;-52
2021/12/09 11:05:00;;;;;;;22.50;20.30;;;;;;;23.96;28.07;94450.88;4974165;28;104777;-53
2021/12/09 11:07:32;;;;;;;23.50;21.40;;;;;;;23.99;28.39;94431.53;4979593;28;102873;-53
2021/12/09 11:10:15;;;;;;;22.70;20.60;;;;;;;23.95;28.17;94457.31;4978307;28;102840;-53
2021/12/09 11:12:56;;;;;;;21.97;20.07;;;;;;;23.96;28.13;94440.19;4979945;28;102743;-53
2021/12/09 11:15:47;;;;;;;23.80;21.70;;;;;;;23.94;28.49;94456.53;4972676;28;102942;-53
2021/12/09 11:18:47;;;;;;;23.97;21.77;;;;;;;23.82;28.16;94437.00;4979725;28;102722;-53
2021/12/09 11:21:20;;;;;;;26.07;23.37;;;;;;;23.73;28.78;94444.31;4979516;28;102793;-53
2021/12/09 11:23:57;;;;;;;26.03;23.63;;;;;;;23.67;28.53;94441.81;4978183;28;102800;-53
2021/12/09 11:29:23;;;;;;;26.27;23.90;;;;;;;23.62;28.99;94425.22;4979030;28;102743;-53
2021/12/09 11:32:13;;;;;;;27.63;24.83;;;;;;;23.61;29.13;94429.78;4978473;28;102667;-53
2021/12/09 11:35:18;;;;;;;28.40;25.90;;;;;;;23.61;28.90;94437.78;4980141;28;102786;-52
2021/12/09 11:40:37;;;;;;;30.53;27.83;;;;;;;23.56;28.92;94426.50;4976317;28;103125;-54
2021/12/09 11:43:05;;;;;;;29.30;26.70;;;;;;;23.52;29.20;94438.91;4979798;28;102718;-53
2021/12/09 11:45:42;;;;;;;28.93;26.43;;;;;;;23.54;28.87;94437.47;4979096;28;102776;-53
2021/12/09 11:48:10;;;;;;;31.80;29.10;;;;;;;23.52;29.35;94429.03;4974161;28;104432;-53
2021/12/09 11:50:41;;;;;;;35.33;32.13;;;;;;;23.48;28.95;94435.31;4979456;28;102747;-53
2021/12/09 11:53:11;;;;;;;37.63;34.23;;;;;;;23.50;29.50;94441.88;4977913;28;103141;-54
2021/12/09 11:55:45;;;;;;;36.97;33.67;;;;;;;23.50;29.07;94417.09;4979946;28;102823;-54
2021/12/09 11:58:18;;;;;;;38.07;34.67;;;;;;;23.48;28.94;94420.09;4974842;28;102840;-53
2021/12/09 12:12:50;;;;;;;42.27;38.50;;;;;;;23.74;29.03;94409.28;4975919;28;102676;-54
2021/12/09 12:15:32;;;;;;;40.73;37.23;;;;;;;23.75;28.88;94404.75;4977366;28;102935;-54
2021/12/09 12:20:51;;;;;;;42.40;38.60;;;;;;;23.75;28.49;94410.06;4972585;28;103371;-54
2021/12/09 12:26:33;;;;;;;43.23;39.33;;;;;;;23.74;28.86;94400.50;4978827;28;102742;-54
2021/12/09 12:29:21;;;;;;;45.37;41.37;;;;;;;23.73;28.88;94391.72;4977411;28;103413;-54
2021/12/09 12:41:06;;;;;;;47.20;43.03;;;;;;;23.72;28.78;94384.84;4978809;28;102731;-54
2021/12/09 12:43:58;;;;;;;46.87;42.67;;;;;;;23.69;28.60;94367.59;4971289;28;102779;-54
2021/12/09 12:49:18;;;;;;;48.33;44.00;;;;;;;23.73;28.71;94361.63;4975780;28;102786;-54
2021/12/09 12:51:55;;;;;;;49.97;45.40;;;;;;;23.72;28.93;94370.72;4979029;28;103263;-54
2021/12/09 12:54:30;;;;;;;50.33;45.83;;;;;;;23.72;28.35;94381.41;4973387;28;102775;-54
2021/12/09 12:56:59;;;;;;;49.30;44.77;;;;;;;23.70;28.37;94379.06;4977394;28;103451;-53
2021/12/09 12:59:33;;;;;;;50.83;46.37;;;;;;;23.68;28.53;94370.56;4977434;28;102831;-54
2021/12/09 13:05:05;;;;;;;50.77;46.20;;;;;;;23.68;28.97;94352.72;4943872;28;102887;-54
2021/12/09 13:11:27;;;;;;;53.93;49.03;;;;;;;23.63;28.70;94366.22;4975240;28;102723;-54
2021/12/09 13:13:52;;;;;;;52.67;48.07;;;;;;;23.70;28.80;94366.50;4969546;28;102751;-53
2021/12/09 13:19:11;;;;;;;52.27;47.77;;;;;;;23.70;28.59;94360.38;4975060;28;103233;-52
2021/12/09 13:21:42;;;;;;;54.60;49.80;;;;;;;23.66;28.88;94341.56;4977649;28;102589;-52
2021/12/09 13:24:20;;;;;;;53.60;48.80;;;;;;;23.68;28.56;94343.91;4984465;28;102779;-52
2021/12/09 13:27:43;;;;;;;54.23;49.30;;;;;;;23.69;28.58;94356.94;4971975;28;102706;-52
2021/12/09 13:30:29;;;;;;;53.97;49.03;;;;;;;23.69;28.78;94364.94;4975131;28;103167;-52
2021/12/09 13:36:04;;;;;;;54.37;49.47;;;;;;;23.63;28.84;94334.22;4965554;28;102792;-52
2021/12/09 13:39:10;;;;;;;53.73;48.90;;;;;;;23.67;28.89;94351.13;4972141;28;104671;-52
2021/12/09 13:47:37;;;;;;;56.57;51.67;;;;;;;23.67;28.76;94305.00;4935089;28;103358;-51
2021/12/09 13:50:31;;;;;;;54.97;50.07;;;;;;;23.68;29.00;94317.22;4975842;28;103630;-52
2021/12/09 13:55:29;;;;;;;53.80;48.90;;;;;;;23.69;29.04;94300.94;4980716;28;102817;-51
2021/12/09 13:58:01;;;;;;;52.73;48.13;;;;;;;23.70;28.69;94345.16;4981293;28;103330;-51
2021/12/09 14:00:26;;;;;;;51.43;46.93;;;;;;;23.69;29.01;94313.50;4975984;28;102845;-52
2021/12/09 14:02:53;;;;;;;50.07;45.47;;;;;;;23.69;28.84;94324.94;4979703;28;103006;-51
2021/12/09 14:05:19;;;;;;;50.87;46.03;;;;;;;23.68;29.02;94331.38;4980566;28;102697;-51
2021/12/09 14:08:07;;;;;;;49.97;45.47;;;;;;;23.70;29.05;94321.16;4981230;28;102540;-51
2021/12/09 14:10:36;;;;;;;52.03;47.33;;;;;;;23.72;29.46;94312.03;4975785;28;103354;-52
2021/12/09 14:13:08;;;;;;;50.73;46.03;;;;;;;23.63;28.95;94304.88;4963415;28;102796;-51
2021/12/09 14:15:42;;;;;;;49.93;45.60;;;;;;;23.66;28.89;94306.13;4981117;28;103229;-52
2021/12/09 14:18:21;;;;;;;49.20;44.70;;;;;;;23.67;28.87;94323.69;4980741;28;102720;-51
2021/12/09 14:20:46;;;;;;;50.10;45.27;;;;;;;23.69;28.94;94316.94;4978646;28;102852;-51
2021/12/09 14:23:14;;;;;;;50.17;45.53;;;;;;;23.68;29.28;94320.72;4976499;28;104028;-52
2021/12/09 14:25:41;;;;;;;50.70;46.10;;;;;;;23.63;28.95;94304.88;4980586;28;102761;-51
2021/12/09 14:28:18;;;;;;;50.17;45.57;;;;;;;23.70;28.89;94323.03;4960953;28;102984;-51
2021/12/09 14:30:48;;;;;;;50.20;45.50;;;;;;;23.70;29.37;94318.50;4962414;28;103477;-51
2021/12/09 14:33:16;;;;;;;50.00;45.10;;;;;;;23.68;28.79;94336.72;4958539;28;103219;-51